This is the latest recevied weather packets stored in our database for station/object M8FSI-13. If no packets are shown the sender has not sent any weather packets the latest 10 day(s).
| Time | Temp. | Humidity | Pressure | Rain* | Wind** | Luminosity | Snow |
|---|---|---|---|---|---|---|---|
| 1778121348 | 6.67° C | 85% | 1015.9 hPa | 0 mm | - | - | - |
| 1778120721 | 6.67° C | 84% | 1015.8 hPa | 0 mm | - | - | - |
| 1778120120 | 7.22° C | 85% | 1015.8 hPa | 0 mm | - | - | - |
| 1778118321 | 7.22° C | 84% | 1015.6 hPa | 0 mm | - | - | - |
| 1778111124 | 8.89° C | 78% | 1015.8 hPa | 0 mm | - | - | - |
| 1778106319 | 11.67° C | 69% | 1015.6 hPa | 0 mm | - | - | - |
| 1778100918 | 11.67° C | 66% | 1015.1 hPa | 0 mm | - | - | - |
| 1778099720 | 12.22° C | 65% | 1015 hPa | 0 mm | - | - | - |
| 1778098535 | 12.22° C | 64% | 1014.9 hPa | 0 mm | - | - | - |
| 1778097933 | 12.22° C | 64% | 1014.7 hPa | 0 mm | - | - | - |
| 1778095554 | 12.78° C | 62% | 1014.4 hPa | 0 mm | - | - | - |
| 1778090720 | 13.33° C | 58% | 1013.9 hPa | 0 mm | - | - | - |
| 1778089535 | 13.89° C | 55% | 1013.4 hPa | 0 mm | - | - | - |
| 1778086541 | 14.44° C | 52% | 1013.3 hPa | 0 mm | - | - | - |
| 1778084135 | 15° C | 48% | 1013.2 hPa | 0 mm | - | - | - |
| 1778082920 | 14.44° C | 48% | 1013.3 hPa | 0 mm | - | - | - |
| 1778081720 | 15° C | 47% | 1013.3 hPa | 0 mm | - | - | - |
| 1778069136 | 15° C | 47% | 1013.5 hPa | 0 mm | - | - | - |
| 1778068520 | 16.11° C | 46% | 1013.6 hPa | 0 mm | - | - | - |
| 1778067321 | 15.56° C | 45% | 1013.6 hPa | 0 mm | - | - | - |
| 1778066124 | 16.11° C | 44% | 1013.7 hPa | 0 mm | - | - | - |
| 1778064922 | 15.56° C | 49% | 1013.8 hPa | 0 mm | - | - | - |
| 1778063720 | 14.44° C | 50% | 1013.8 hPa | 0 mm | - | - | - |
| 1778061354 | 13.89° C | 50% | 1013.8 hPa | 0 mm | - | - | - |
| 1778053535 | 11.67° C | 68% | 1013.7 hPa | 0 mm | - | - | - |
* Rain latest hour (hover to see other rain measurements)
** Current wind speed in m/s (hover to see current wind gust speed)